sensor_id;sensor_type;location;lat;lon;timestamp;P1;durP1;ratioP1;P2;durP2;ratioP2
54983;SDS011;40884;53.562;9.940;2022-11-18T00:00:54;17.83;;;14.43;;
54983;SDS011;40884;53.562;9.940;2022-11-18T00:01:55;16.97;;;14.07;;
54983;SDS011;40884;53.562;9.940;2022-11-18T00:02:55;16.87;;;13.57;;
54983;SDS011;40884;53.562;9.940;2022-11-18T00:03:55;17.40;;;14.50;;
54983;SDS011;40884;53.562;9.940;2022-11-18T00:04:55;16.57;;;13.27;;
54983;SDS011;40884;53.562;9.940;2022-11-18T00:05:55;16.93;;;13.50;;
54983;SDS011;40884;53.562;9.940;2022-11-18T00:06:55;19.53;;;14.87;;
54983;SDS011;40884;53.562;9.940;2022-11-18T00:07:56;17.97;;;14.37;;
54983;SDS011;40884;53.562;9.940;2022-11-18T00:08:56;17.23;;;13.83;;
54983;SDS011;40884;53.562;9.940;2022-11-18T00:09:57;16.30;;;13.45;;
54983;SDS011;40884;53.562;9.940;2022-11-18T00:10:57;18.37;;;14.17;;
54983;SDS011;40884;53.562;9.940;2022-11-18T00:11:57;16.07;;;14.13;;
54983;SDS011;40884;53.562;9.940;2022-11-18T00:12:57;19.73;;;14.13;;
54983;SDS011;40884;53.562;9.940;2022-11-18T00:13:57;17.83;;;14.20;;
54983;SDS011;40884;53.562;9.940;2022-11-18T00:14:58;17.03;;;13.87;;
54983;SDS011;40884;53.562;9.940;2022-11-18T00:15:58;19.93;;;14.23;;
54983;SDS011;40884;53.562;9.940;2022-11-18T00:17:02;16.27;;;13.80;;
54983;SDS011;40884;53.562;9.940;2022-11-18T00:18:03;16.48;;;14.13;;
54983;SDS011;40884;53.562;9.940;2022-11-18T00:19:03;18.33;;;14.60;;
54983;SDS011;40884;53.562;9.940;2022-11-18T00:20:03;16.77;;;13.87;;
54983;SDS011;40884;53.562;9.940;2022-11-18T00:21:04;17.67;;;14.10;;
54983;SDS011;40884;53.562;9.940;2022-11-18T00:22:06;17.38;;;13.93;;
54983;SDS011;40884;53.562;9.940;2022-11-18T00:23:06;17.90;;;13.43;;
54983;SDS011;40884;53.562;9.940;2022-11-18T00:24:06;15.57;;;13.50;;
54983;SDS011;40884;53.562;9.940;2022-11-18T00:25:07;16.23;;;13.33;;
54983;SDS011;40884;53.562;9.940;2022-11-18T00:26:11;16.37;;;13.80;;
54983;SDS011;40884;53.562;9.940;2022-11-18T00:27:11;17.42;;;14.15;;
54983;SDS011;40884;53.562;9.940;2022-11-18T00:28:11;16.83;;;14.17;;
54983;SDS011;40884;53.562;9.940;2022-11-18T00:29:11;17.03;;;14.10;;
54983;SDS011;40884;53.562;9.940;2022-11-18T00:30:12;17.43;;;14.07;;
54983;SDS011;40884;53.562;9.940;2022-11-18T00:31:12;16.97;;;13.63;;
54983;SDS011;40884;53.562;9.940;2022-11-18T00:32:12;17.23;;;14.30;;
54983;SDS011;40884;53.562;9.940;2022-11-18T00:33:12;15.83;;;12.77;;
54983;SDS011;40884;53.562;9.940;2022-11-18T00:34:13;15.90;;;13.30;;
54983;SDS011;40884;53.562;9.940;2022-11-18T00:35:14;16.35;;;13.00;;
54983;SDS011;40884;53.562;9.940;2022-11-18T00:36:14;17.67;;;13.97;;
54983;SDS011;40884;53.562;9.940;2022-11-18T00:37:14;16.77;;;13.87;;
54983;SDS011;40884;53.562;9.940;2022-11-18T00:38:14;17.20;;;13.53;;
54983;SDS011;40884;53.562;9.940;2022-11-18T00:39:16;17.83;;;14.33;;
54983;SDS011;40884;53.562;9.940;2022-11-18T00:40:16;16.88;;;13.70;;
54983;SDS011;40884;53.562;9.940;2022-11-18T00:41:16;16.53;;;13.97;;
54983;SDS011;40884;53.562;9.940;2022-11-18T00:42:16;16.90;;;13.67;;
54983;SDS011;40884;53.562;9.940;2022-11-18T00:43:16;17.70;;;14.43;;
54983;SDS011;40884;53.562;9.940;2022-11-18T00:44:16;17.90;;;14.07;;
54983;SDS011;40884;53.562;9.940;2022-11-18T00:45:17;18.43;;;13.93;;
54983;SDS011;40884;53.562;9.940;2022-11-18T00:46:17;19.33;;;15.03;;
54983;SDS011;40884;53.562;9.940;2022-11-18T00:47:17;18.23;;;13.70;;
54983;SDS011;40884;53.562;9.940;2022-11-18T00:48:17;19.43;;;14.63;;
54983;SDS011;40884;53.562;9.940;2022-11-18T00:49:18;17.77;;;13.70;;
54983;SDS011;40884;53.562;9.940;2022-11-18T00:50:18;18.70;;;14.33;;
54983;SDS011;40884;53.562;9.940;2022-11-18T00:51:18;18.13;;;14.00;;
54983;SDS011;40884;53.562;9.940;2022-11-18T00:52:18;19.03;;;14.47;;
54983;SDS011;40884;53.562;9.940;2022-11-18T00:53:19;17.43;;;13.53;;
54983;SDS011;40884;53.562;9.940;2022-11-18T00:54:19;18.27;;;14.90;;
54983;SDS011;40884;53.562;9.940;2022-11-18T00:55:21;18.77;;;14.87;;
54983;SDS011;40884;53.562;9.940;2022-11-18T00:56:21;18.25;;;14.70;;
54983;SDS011;40884;53.562;9.940;2022-11-18T00:57:21;18.70;;;14.80;;
54983;SDS011;40884;53.562;9.940;2022-11-18T00:58:21;21.03;;;15.30;;
54983;SDS011;40884;53.562;9.940;2022-11-18T00:59:21;19.23;;;14.97;;
54983;SDS011;40884;53.562;9.940;2022-11-18T01:00:21;19.07;;;15.23;;
54983;SDS011;40884;53.562;9.940;2022-11-18T01:01:21;18.37;;;15.00;;
54983;SDS011;40884;53.562;9.940;2022-11-18T01:02:22;18.33;;;14.53;;
54983;SDS011;40884;53.562;9.940;2022-11-18T01:03:22;17.83;;;14.50;;
54983;SDS011;40884;53.562;9.940;2022-11-18T01:04:22;18.97;;;14.37;;
54983;SDS011;40884;53.562;9.940;2022-11-18T01:05:22;19.77;;;14.90;;
54983;SDS011;40884;53.562;9.940;2022-11-18T01:06:22;19.07;;;14.43;;
54983;SDS011;40884;53.562;9.940;2022-11-18T01:07:22;17.90;;;14.90;;
54983;SDS011;40884;53.562;9.940;2022-11-18T01:08:22;17.90;;;15.03;;
54983;SDS011;40884;53.562;9.940;2022-11-18T01:09:23;19.63;;;15.03;;
54983;SDS011;40884;53.562;9.940;2022-11-18T01:10:23;18.83;;;14.97;;
54983;SDS011;40884;53.562;9.940;2022-11-18T01:11:23;20.17;;;15.37;;
54983;SDS011;40884;53.562;9.940;2022-11-18T01:12:23;19.50;;;15.93;;
54983;SDS011;40884;53.562;9.940;2022-11-18T01:13:23;22.20;;;15.87;;
54983;SDS011;40884;53.562;9.940;2022-11-18T01:14:24;22.53;;;16.13;;
54983;SDS011;40884;53.562;9.940;2022-11-18T01:15:24;20.97;;;16.53;;
54983;SDS011;40884;53.562;9.940;2022-11-18T01:16:25;22.00;;;15.53;;
54983;SDS011;40884;53.562;9.940;2022-11-18T01:17:28;19.55;;;15.85;;
54983;SDS011;40884;53.562;9.940;2022-11-18T01:18:29;19.60;;;16.00;;
54983;SDS011;40884;53.562;9.940;2022-11-18T01:19:29;21.95;;;16.70;;
54983;SDS011;40884;53.562;9.940;2022-11-18T01:20:31;20.23;;;16.23;;
54983;SDS011;40884;53.562;9.940;2022-11-18T01:21:31;19.50;;;15.88;;
54983;SDS011;40884;53.562;9.940;2022-11-18T01:22:31;20.67;;;16.57;;
54983;SDS011;40884;53.562;9.940;2022-11-18T01:23:31;21.87;;;16.33;;
54983;SDS011;40884;53.562;9.940;2022-11-18T01:24:31;21.00;;;16.47;;
54983;SDS011;40884;53.562;9.940;2022-11-18T01:25:33;20.53;;;16.13;;
54983;SDS011;40884;53.562;9.940;2022-11-18T01:26:33;19.80;;;15.68;;
54983;SDS011;40884;53.562;9.940;2022-11-18T01:27:34;20.13;;;16.57;;
54983;SDS011;40884;53.562;9.940;2022-11-18T01:28:34;20.47;;;16.47;;
54983;SDS011;40884;53.562;9.940;2022-11-18T01:29:35;21.33;;;16.33;;
54983;SDS011;40884;53.562;9.940;2022-11-18T01:30:35;19.33;;;15.53;;
54983;SDS011;40884;53.562;9.940;2022-11-18T01:31:36;19.47;;;15.23;;
54983;SDS011;40884;53.562;9.940;2022-11-18T01:32:36;19.80;;;15.57;;
54983;SDS011;40884;53.562;9.940;2022-11-18T01:33:36;20.63;;;17.00;;
54983;SDS011;40884;53.562;9.940;2022-11-18T01:34:36;22.37;;;15.87;;
54983;SDS011;40884;53.562;9.940;2022-11-18T01:35:41;21.03;;;16.87;;
54983;SDS011;40884;53.562;9.940;2022-11-18T01:36:41;21.48;;;16.75;;
54983;SDS011;40884;53.562;9.940;2022-11-18T01:37:41;19.87;;;15.90;;
54983;SDS011;40884;53.562;9.940;2022-11-18T01:38:42;21.17;;;16.77;;
54983;SDS011;40884;53.562;9.940;2022-11-18T01:39:42;20.03;;;16.07;;
54983;SDS011;40884;53.562;9.940;2022-11-18T01:40:42;21.47;;;16.30;;
54983;SDS011;40884;53.562;9.940;2022-11-18T01:41:42;21.10;;;15.67;;
54983;SDS011;40884;53.562;9.940;2022-11-18T01:42:43;22.43;;;16.73;;
54983;SDS011;40884;53.562;9.940;2022-11-18T01:45:56;22.45;;;17.42;;
54983;SDS011;40884;53.562;9.940;2022-11-18T01:46:56;21.43;;;16.50;;
54983;SDS011;40884;53.562;9.940;2022-11-18T01:48:01;21.80;;;16.73;;
54983;SDS011;40884;53.562;9.940;2022-11-18T01:49:05;21.85;;;16.52;;
54983;SDS011;40884;53.562;9.940;2022-11-18T01:50:06;20.10;;;16.27;;
54983;SDS011;40884;53.562;9.940;2022-11-18T01:51:08;22.47;;;17.27;;
54983;SDS011;40884;53.562;9.940;2022-11-18T01:52:09;21.90;;;16.65;;
54983;SDS011;40884;53.562;9.940;2022-11-18T01:53:12;21.97;;;16.90;;
54983;SDS011;40884;53.562;9.940;2022-11-18T01:54:20;20.80;;;16.05;;
54983;SDS011;40884;53.562;9.940;2022-11-18T01:55:25;21.15;;;17.15;;
54983;SDS011;40884;53.562;9.940;2022-11-18T01:56:28;19.65;;;15.60;;
54983;SDS011;40884;53.562;9.940;2022-11-18T01:57:30;21.17;;;17.05;;
54983;SDS011;40884;53.562;9.940;2022-11-18T01:58:34;20.57;;;16.90;;
54983;SDS011;40884;53.562;9.940;2022-11-18T01:59:36;22.27;;;17.13;;
54983;SDS011;40884;53.562;9.940;2022-11-18T02:00:38;19.65;;;16.23;;
54983;SDS011;40884;53.562;9.940;2022-11-18T02:01:38;22.30;;;17.93;;
54983;SDS011;40884;53.562;9.940;2022-11-18T02:02:39;20.43;;;16.60;;
54983;SDS011;40884;53.562;9.940;2022-11-18T02:03:39;23.87;;;17.77;;
54983;SDS011;40884;53.562;9.940;2022-11-18T02:04:41;22.27;;;16.97;;
54983;SDS011;40884;53.562;9.940;2022-11-18T02:05:42;23.35;;;17.10;;
54983;SDS011;40884;53.562;9.940;2022-11-18T02:06:43;22.08;;;17.70;;
54983;SDS011;40884;53.562;9.940;2022-11-18T02:07:44;22.15;;;18.52;;
54983;SDS011;40884;53.562;9.940;2022-11-18T02:08:45;21.30;;;18.23;;
54983;SDS011;40884;53.562;9.940;2022-11-18T02:09:45;24.20;;;18.57;;
54983;SDS011;40884;53.562;9.940;2022-11-18T02:10:45;24.27;;;19.20;;
54983;SDS011;40884;53.562;9.940;2022-11-18T02:11:46;23.60;;;18.43;;
54983;SDS011;40884;53.562;9.940;2022-11-18T02:12:47;22.05;;;18.42;;
54983;SDS011;40884;53.562;9.940;2022-11-18T02:13:48;24.08;;;19.05;;
54983;SDS011;40884;53.562;9.940;2022-11-18T02:14:48;22.40;;;18.50;;
54983;SDS011;40884;53.562;9.940;2022-11-18T02:15:55;23.23;;;18.53;;
54983;SDS011;40884;53.562;9.940;2022-11-18T02:18:24;26.27;;;19.45;;
54983;SDS011;40884;53.562;9.940;2022-11-18T02:19:49;23.83;;;18.73;;
54983;SDS011;40884;53.562;9.940;2022-11-18T02:20:54;23.38;;;18.70;;
54983;SDS011;40884;53.562;9.940;2022-11-18T02:22:07;24.05;;;19.58;;
54983;SDS011;40884;53.562;9.940;2022-11-18T02:23:29;23.95;;;18.67;;
54983;SDS011;40884;53.562;9.940;2022-11-18T02:26:01;25.27;;;19.42;;
54983;SDS011;40884;53.562;9.940;2022-11-18T02:27:15;26.85;;;19.58;;
54983;SDS011;40884;53.562;9.940;2022-11-18T02:28:35;24.85;;;19.50;;
54983;SDS011;40884;53.562;9.940;2022-11-18T02:29:37;25.88;;;19.20;;
54983;SDS011;40884;53.562;9.940;2022-11-18T02:30:48;24.67;;;20.30;;
54983;SDS011;40884;53.562;9.940;2022-11-18T02:31:52;25.55;;;19.85;;
54983;SDS011;40884;53.562;9.940;2022-11-18T02:33:01;25.58;;;20.50;;
54983;SDS011;40884;53.562;9.940;2022-11-18T02:34:05;26.15;;;20.00;;
54983;SDS011;40884;53.562;9.940;2022-11-18T02:35:09;25.85;;;20.35;;
54983;SDS011;40884;53.562;9.940;2022-11-18T02:37:22;26.33;;;19.73;;
54983;SDS011;40884;53.562;9.940;2022-11-18T02:38:31;26.10;;;20.63;;
54983;SDS011;40884;53.562;9.940;2022-11-18T02:39:34;26.73;;;20.25;;
54983;SDS011;40884;53.562;9.940;2022-11-18T02:40:39;25.70;;;20.10;;
54983;SDS011;40884;53.562;9.940;2022-11-18T02:41:41;26.73;;;20.33;;
54983;SDS011;40884;53.562;9.940;2022-11-18T02:42:43;23.77;;;18.77;;
54983;SDS011;40884;53.562;9.940;2022-11-18T02:43:46;25.83;;;20.63;;
54983;SDS011;40884;53.562;9.940;2022-11-18T02:44:49;25.00;;;19.80;;
54983;SDS011;40884;53.562;9.940;2022-11-18T02:45:51;24.50;;;19.95;;
54983;SDS011;40884;53.562;9.940;2022-11-18T02:46:55;26.02;;;19.98;;
54983;SDS011;40884;53.562;9.940;2022-11-18T02:47:56;27.30;;;20.85;;
54983;SDS011;40884;53.562;9.940;2022-11-18T02:48:59;24.83;;;19.50;;
54983;SDS011;40884;53.562;9.940;2022-11-18T02:50:02;26.77;;;21.15;;
54983;SDS011;40884;53.562;9.940;2022-11-18T02:51:03;24.70;;;20.13;;
54983;SDS011;40884;53.562;9.940;2022-11-18T02:52:04;25.88;;;20.73;;
54983;SDS011;40884;53.562;9.940;2022-11-18T02:53:06;23.05;;;19.30;;
54983;SDS011;40884;53.562;9.940;2022-11-18T02:54:08;24.52;;;20.13;;
54983;SDS011;40884;53.562;9.940;2022-11-18T02:55:10;24.33;;;20.02;;
54983;SDS011;40884;53.562;9.940;2022-11-18T02:56:12;24.73;;;19.45;;
54983;SDS011;40884;53.562;9.940;2022-11-18T02:57:12;25.63;;;20.17;;
54983;SDS011;40884;53.562;9.940;2022-11-18T02:58:14;26.42;;;20.13;;
54983;SDS011;40884;53.562;9.940;2022-11-18T02:59:17;25.70;;;20.55;;
54983;SDS011;40884;53.562;9.940;2022-11-18T03:00:17;25.97;;;21.23;;
54983;SDS011;40884;53.562;9.940;2022-11-18T03:01:24;26.57;;;21.00;;
54983;SDS011;40884;53.562;9.940;2022-11-18T03:02:25;24.45;;;19.80;;
54983;SDS011;40884;53.562;9.940;2022-11-18T03:04:28;26.00;;;19.15;;
54983;SDS011;40884;53.562;9.940;2022-11-18T03:05:32;24.98;;;20.75;;
54983;SDS011;40884;53.562;9.940;2022-11-18T03:06:42;25.75;;;21.02;;
54983;SDS011;40884;53.562;9.940;2022-11-18T03:07:45;24.63;;;19.38;;
54983;SDS011;40884;53.562;9.940;2022-11-18T03:08:48;26.05;;;19.13;;
54983;SDS011;40884;53.562;9.940;2022-11-18T03:09:51;24.38;;;19.95;;
54983;SDS011;40884;53.562;9.940;2022-11-18T03:10:53;23.97;;;20.07;;
54983;SDS011;40884;53.562;9.940;2022-11-18T03:12:01;24.80;;;19.60;;
54983;SDS011;40884;53.562;9.940;2022-11-18T03:13:04;22.90;;;19.02;;
54983;SDS011;40884;53.562;9.940;2022-11-18T03:14:10;23.17;;;19.92;;
54983;SDS011;40884;53.562;9.940;2022-11-18T03:16:38;24.05;;;19.42;;
54983;SDS011;40884;53.562;9.940;2022-11-18T03:17:50;24.23;;;19.85;;
54983;SDS011;40884;53.562;9.940;2022-11-18T03:19:08;22.40;;;18.75;;
54983;SDS011;40884;53.562;9.940;2022-11-18T03:21:13;24.42;;;19.83;;
54983;SDS011;40884;53.562;9.940;2022-11-18T03:22:26;23.75;;;18.77;;
54983;SDS011;40884;53.562;9.940;2022-11-18T03:23:11;22.95;;;18.85;;
54983;SDS011;40884;53.562;9.940;2022-11-18T03:24:15;25.35;;;20.42;;
54983;SDS011;40884;53.562;9.940;2022-11-18T03:25:26;23.92;;;18.92;;
54983;SDS011;40884;53.562;9.940;2022-11-18T03:26:32;24.58;;;19.08;;
54983;SDS011;40884;53.562;9.940;2022-11-18T03:27:35;22.80;;;18.52;;
54983;SDS011;40884;53.562;9.940;2022-11-18T03:28:43;23.60;;;18.45;;
54983;SDS011;40884;53.562;9.940;2022-11-18T03:29:53;25.70;;;19.17;;
54983;SDS011;40884;53.562;9.940;2022-11-18T03:30:55;22.73;;;18.52;;
54983;SDS011;40884;53.562;9.940;2022-11-18T03:32:11;24.67;;;19.80;;
54983;SDS011;40884;53.562;9.940;2022-11-18T03:33:13;23.65;;;19.63;;
54983;SDS011;40884;53.562;9.940;2022-11-18T03:34:18;24.45;;;19.70;;
54983;SDS011;40884;53.562;9.940;2022-11-18T03:35:21;25.23;;;20.30;;
54983;SDS011;40884;53.562;9.940;2022-11-18T03:36:23;23.55;;;18.92;;
54983;SDS011;40884;53.562;9.940;2022-11-18T03:37:25;25.85;;;20.40;;
54983;SDS011;40884;53.562;9.940;2022-11-18T03:38:28;24.60;;;19.33;;
54983;SDS011;40884;53.562;9.940;2022-11-18T03:39:30;26.30;;;19.92;;
54983;SDS011;40884;53.562;9.940;2022-11-18T03:40:31;25.83;;;20.08;;
54983;SDS011;40884;53.562;9.940;2022-11-18T03:41:34;27.15;;;21.35;;
54983;SDS011;40884;53.562;9.940;2022-11-18T03:42:39;25.67;;;20.77;;
54983;SDS011;40884;53.562;9.940;2022-11-18T03:43:42;25.23;;;20.23;;
54983;SDS011;40884;53.562;9.940;2022-11-18T03:44:45;24.00;;;19.60;;
54983;SDS011;40884;53.562;9.940;2022-11-18T03:47:05;24.33;;;18.80;;
54983;SDS011;40884;53.562;9.940;2022-11-18T03:48:18;24.25;;;18.88;;
54983;SDS011;40884;53.562;9.940;2022-11-18T03:49:21;23.73;;;19.52;;
54983;SDS011;40884;53.562;9.940;2022-11-18T03:50:25;26.13;;;20.38;;
54983;SDS011;40884;53.562;9.940;2022-11-18T03:51:31;24.35;;;19.33;;
54983;SDS011;40884;53.562;9.940;2022-11-18T03:52:32;22.77;;;19.10;;
54983;SDS011;40884;53.562;9.940;2022-11-18T03:53:35;25.80;;;19.67;;
54983;SDS011;40884;53.562;9.940;2022-11-18T03:54:36;24.05;;;19.15;;
54983;SDS011;40884;53.562;9.940;2022-11-18T03:55:41;22.27;;;18.77;;
54983;SDS011;40884;53.562;9.940;2022-11-18T03:56:43;24.08;;;18.25;;
54983;SDS011;40884;53.562;9.940;2022-11-18T03:57:48;22.50;;;17.67;;
54983;SDS011;40884;53.562;9.940;2022-11-18T03:58:56;23.38;;;18.63;;
54983;SDS011;40884;53.562;9.940;2022-11-18T04:01:00;24.30;;;18.90;;
54983;SDS011;40884;53.562;9.940;2022-11-18T04:02:05;22.85;;;17.67;;
54983;SDS011;40884;53.562;9.940;2022-11-18T04:03:08;23.38;;;17.95;;
54983;SDS011;40884;53.562;9.940;2022-11-18T04:04:09;21.63;;;17.50;;
54983;SDS011;40884;53.562;9.940;2022-11-18T04:05:11;22.60;;;18.47;;
54983;SDS011;40884;53.562;9.940;2022-11-18T04:06:17;20.58;;;17.27;;
54983;SDS011;40884;53.562;9.940;2022-11-18T04:07:22;22.85;;;18.58;;
54983;SDS011;40884;53.562;9.940;2022-11-18T04:08:23;19.60;;;16.42;;
54983;SDS011;40884;53.562;9.940;2022-11-18T04:09:33;22.00;;;17.52;;
54983;SDS011;40884;53.562;9.940;2022-11-18T04:10:36;21.45;;;17.75;;
54983;SDS011;40884;53.562;9.940;2022-11-18T04:11:40;21.98;;;16.90;;
54983;SDS011;40884;53.562;9.940;2022-11-18T04:12:43;21.20;;;17.35;;
54983;SDS011;40884;53.562;9.940;2022-11-18T04:13:44;21.00;;;17.67;;
54983;SDS011;40884;53.562;9.940;2022-11-18T04:14:44;21.53;;;17.77;;
54983;SDS011;40884;53.562;9.940;2022-11-18T04:15:44;22.47;;;18.23;;
54983;SDS011;40884;53.562;9.940;2022-11-18T04:16:48;20.43;;;17.97;;
54983;SDS011;40884;53.562;9.940;2022-11-18T04:17:48;22.35;;;17.83;;
54983;SDS011;40884;53.562;9.940;2022-11-18T04:18:48;23.07;;;19.30;;
54983;SDS011;40884;53.562;9.940;2022-11-18T04:19:49;22.40;;;18.07;;
54983;SDS011;40884;53.562;9.940;2022-11-18T04:20:49;21.13;;;18.07;;
54983;SDS011;40884;53.562;9.940;2022-11-18T04:21:49;21.60;;;17.77;;
54983;SDS011;40884;53.562;9.940;2022-11-18T04:22:49;20.73;;;17.33;;
54983;SDS011;40884;53.562;9.940;2022-11-18T04:23:49;19.07;;;16.70;;
54983;SDS011;40884;53.562;9.940;2022-11-18T04:24:49;22.60;;;18.50;;
54983;SDS011;40884;53.562;9.940;2022-11-18T04:25:49;20.63;;;16.97;;
54983;SDS011;40884;53.562;9.940;2022-11-18T04:26:49;21.50;;;17.17;;
54983;SDS011;40884;53.562;9.940;2022-11-18T04:27:50;22.33;;;18.60;;
54983;SDS011;40884;53.562;9.940;2022-11-18T04:28:50;21.97;;;17.73;;
54983;SDS011;40884;53.562;9.940;2022-11-18T04:29:50;20.43;;;18.07;;
54983;SDS011;40884;53.562;9.940;2022-11-18T04:30:50;20.60;;;17.33;;
54983;SDS011;40884;53.562;9.940;2022-11-18T04:31:50;20.00;;;16.70;;
54983;SDS011;40884;53.562;9.940;2022-11-18T04:32:50;20.50;;;17.17;;
54983;SDS011;40884;53.562;9.940;2022-11-18T04:33:50;19.27;;;16.80;;
54983;SDS011;40884;53.562;9.940;2022-11-18T04:34:50;18.30;;;16.33;;
54983;SDS011;40884;53.562;9.940;2022-11-18T04:35:51;19.40;;;17.30;;
54983;SDS011;40884;53.562;9.940;2022-11-18T04:36:51;20.43;;;17.90;;
54983;SDS011;40884;53.562;9.940;2022-11-18T04:37:51;19.60;;;16.47;;
54983;SDS011;40884;53.562;9.940;2022-11-18T04:38:51;19.70;;;17.60;;
54983;SDS011;40884;53.562;9.940;2022-11-18T04:39:51;21.07;;;17.73;;
54983;SDS011;40884;53.562;9.940;2022-11-18T04:40:51;21.53;;;17.47;;
54983;SDS011;40884;53.562;9.940;2022-11-18T04:41:51;18.33;;;15.43;;
54983;SDS011;40884;53.562;9.940;2022-11-18T04:42:51;21.50;;;17.23;;
54983;SDS011;40884;53.562;9.940;2022-11-18T04:43:52;19.30;;;16.47;;
54983;SDS011;40884;53.562;9.940;2022-11-18T04:44:52;20.90;;;16.83;;
54983;SDS011;40884;53.562;9.940;2022-11-18T04:45:52;20.00;;;17.40;;
54983;SDS011;40884;53.562;9.940;2022-11-18T04:46:52;19.60;;;16.90;;
54983;SDS011;40884;53.562;9.940;2022-11-18T04:47:53;21.27;;;17.92;;
54983;SDS011;40884;53.562;9.940;2022-11-18T04:48:53;20.07;;;16.87;;
54983;SDS011;40884;53.562;9.940;2022-11-18T04:49:53;20.33;;;18.10;;
54983;SDS011;40884;53.562;9.940;2022-11-18T04:50:55;22.03;;;18.13;;
54983;SDS011;40884;53.562;9.940;2022-11-18T04:51:56;21.27;;;17.25;;
54983;SDS011;40884;53.562;9.940;2022-11-18T04:52:56;19.40;;;16.77;;
54983;SDS011;40884;53.562;9.940;2022-11-18T04:53:56;20.60;;;17.07;;
54983;SDS011;40884;53.562;9.940;2022-11-18T04:54:56;18.93;;;16.43;;
54983;SDS011;40884;53.562;9.940;2022-11-18T04:56:02;19.77;;;17.00;;
54983;SDS011;40884;53.562;9.940;2022-11-18T04:57:03;20.13;;;17.17;;
54983;SDS011;40884;53.562;9.940;2022-11-18T04:58:03;19.70;;;17.60;;
54983;SDS011;40884;53.562;9.940;2022-11-18T04:59:03;21.17;;;17.10;;
54983;SDS011;40884;53.562;9.940;2022-11-18T05:00:03;21.27;;;17.07;;
54983;SDS011;40884;53.562;9.940;2022-11-18T05:01:04;18.87;;;16.50;;
54983;SDS011;40884;53.562;9.940;2022-11-18T05:02:04;19.30;;;17.10;;
54983;SDS011;40884;53.562;9.940;2022-11-18T05:03:04;22.03;;;16.97;;
54983;SDS011;40884;53.562;9.940;2022-11-18T05:04:04;20.27;;;17.37;;
54983;SDS011;40884;53.562;9.940;2022-11-18T05:05:05;19.60;;;16.87;;
54983;SDS011;40884;53.562;9.940;2022-11-18T05:06:05;20.17;;;17.43;;
54983;SDS011;40884;53.562;9.940;2022-11-18T05:07:05;21.27;;;17.97;;
54983;SDS011;40884;53.562;9.940;2022-11-18T05:08:05;20.50;;;17.53;;
54983;SDS011;40884;53.562;9.940;2022-11-18T05:09:05;20.50;;;17.50;;
54983;SDS011;40884;53.562;9.940;2022-11-18T05:10:06;21.37;;;18.77;;
54983;SDS011;40884;53.562;9.940;2022-11-18T05:11:06;22.13;;;18.17;;
54983;SDS011;40884;53.562;9.940;2022-11-18T05:12:09;21.90;;;17.77;;
54983;SDS011;40884;53.562;9.940;2022-11-18T05:13:11;19.67;;;17.58;;
54983;SDS011;40884;53.562;9.940;2022-11-18T05:14:12;19.85;;;17.45;;
54983;SDS011;40884;53.562;9.940;2022-11-18T05:15:12;19.63;;;17.53;;
54983;SDS011;40884;53.562;9.940;2022-11-18T05:16:12;20.60;;;17.97;;
54983;SDS011;40884;53.562;9.940;2022-11-18T05:17:12;22.73;;;19.17;;
54983;SDS011;40884;53.562;9.940;2022-11-18T05:18:12;20.77;;;17.67;;
54983;SDS011;40884;53.562;9.940;2022-11-18T05:19:13;24.00;;;18.17;;
54983;SDS011;40884;53.562;9.940;2022-11-18T05:20:13;23.83;;;18.83;;
54983;SDS011;40884;53.562;9.940;2022-11-18T05:21:13;20.03;;;17.90;;
54983;SDS011;40884;53.562;9.940;2022-11-18T05:22:13;21.17;;;18.20;;
54983;SDS011;40884;53.562;9.940;2022-11-18T05:23:13;21.70;;;18.97;;
54983;SDS011;40884;53.562;9.940;2022-11-18T05:24:13;21.13;;;17.17;;
54983;SDS011;40884;53.562;9.940;2022-11-18T05:25:13;22.10;;;19.07;;
54983;SDS011;40884;53.562;9.940;2022-11-18T05:26:14;22.30;;;19.13;;
54983;SDS011;40884;53.562;9.940;2022-11-18T05:27:14;21.07;;;18.10;;
54983;SDS011;40884;53.562;9.940;2022-11-18T05:28:14;21.70;;;19.20;;
54983;SDS011;40884;53.562;9.940;2022-11-18T05:29:15;22.60;;;18.67;;
54983;SDS011;40884;53.562;9.940;2022-11-18T05:30:16;21.38;;;17.90;;
54983;SDS011;40884;53.562;9.940;2022-11-18T05:31:16;21.13;;;18.83;;
54983;SDS011;40884;53.562;9.940;2022-11-18T05:32:16;22.23;;;18.80;;
54983;SDS011;40884;53.562;9.940;2022-11-18T05:33:16;22.87;;;18.70;;
54983;SDS011;40884;53.562;9.940;2022-11-18T05:34:17;24.17;;;19.77;;
54983;SDS011;40884;53.562;9.940;2022-11-18T05:35:17;21.77;;;18.37;;
54983;SDS011;40884;53.562;9.940;2022-11-18T05:36:18;22.70;;;18.30;;
54983;SDS011;40884;53.562;9.940;2022-11-18T05:37:18;23.17;;;19.10;;
54983;SDS011;40884;53.562;9.940;2022-11-18T05:38:18;22.50;;;18.40;;
54983;SDS011;40884;53.562;9.940;2022-11-18T05:39:18;24.07;;;18.77;;
54983;SDS011;40884;53.562;9.940;2022-11-18T05:40:19;21.67;;;18.60;;
54983;SDS011;40884;53.562;9.940;2022-11-18T05:41:19;22.30;;;19.30;;
54983;SDS011;40884;53.562;9.940;2022-11-18T05:42:19;22.93;;;18.93;;
54983;SDS011;40884;53.562;9.940;2022-11-18T05:43:19;22.57;;;18.97;;
54983;SDS011;40884;53.562;9.940;2022-11-18T05:44:19;24.00;;;19.50;;
54983;SDS011;40884;53.562;9.940;2022-11-18T05:45:19;23.60;;;20.00;;
54983;SDS011;40884;53.562;9.940;2022-11-18T05:46:19;25.13;;;21.00;;
54983;SDS011;40884;53.562;9.940;2022-11-18T05:47:19;22.37;;;19.17;;
54983;SDS011;40884;53.562;9.940;2022-11-18T05:48:19;21.83;;;18.93;;
54983;SDS011;40884;53.562;9.940;2022-11-18T05:49:20;21.80;;;19.20;;
54983;SDS011;40884;53.562;9.940;2022-11-18T05:50:20;24.47;;;20.67;;
54983;SDS011;40884;53.562;9.940;2022-11-18T05:51:20;23.40;;;19.37;;
54983;SDS011;40884;53.562;9.940;2022-11-18T05:52:20;21.63;;;19.10;;
54983;SDS011;40884;53.562;9.940;2022-11-18T05:53:22;22.03;;;19.67;;
54983;SDS011;40884;53.562;9.940;2022-11-18T05:54:22;25.00;;;19.70;;
54983;SDS011;40884;53.562;9.940;2022-11-18T05:55:23;22.40;;;19.77;;
54983;SDS011;40884;53.562;9.940;2022-11-18T05:56:28;21.13;;;18.63;;
54983;SDS011;40884;53.562;9.940;2022-11-18T05:57:28;22.85;;;19.70;;
54983;SDS011;40884;53.562;9.940;2022-11-18T05:58:29;21.90;;;19.47;;
54983;SDS011;40884;53.562;9.940;2022-11-18T05:59:29;23.10;;;20.60;;
54983;SDS011;40884;53.562;9.940;2022-11-18T06:00:29;23.37;;;20.10;;
54983;SDS011;40884;53.562;9.940;2022-11-18T06:02:39;22.73;;;20.33;;
54983;SDS011;40884;53.562;9.940;2022-11-18T06:03:40;23.30;;;20.00;;
54983;SDS011;40884;53.562;9.940;2022-11-18T06:04:45;23.17;;;20.43;;
54983;SDS011;40884;53.562;9.940;2022-11-18T06:05:45;21.77;;;19.05;;
54983;SDS011;40884;53.562;9.940;2022-11-18T06:06:46;22.53;;;19.97;;
54983;SDS011;40884;53.562;9.940;2022-11-18T06:07:48;22.70;;;19.48;;
54983;SDS011;40884;53.562;9.940;2022-11-18T06:08:53;22.23;;;19.83;;
54983;SDS011;40884;53.562;9.940;2022-11-18T06:09:55;24.88;;;20.75;;
54983;SDS011;40884;53.562;9.940;2022-11-18T06:10:57;23.83;;;19.13;;
54983;SDS011;40884;53.562;9.940;2022-11-18T06:11:57;25.87;;;21.13;;
54983;SDS011;40884;53.562;9.940;2022-11-18T06:13:00;22.88;;;19.90;;
54983;SDS011;40884;53.562;9.940;2022-11-18T06:14:03;22.33;;;19.92;;
54983;SDS011;40884;53.562;9.940;2022-11-18T06:15:13;24.00;;;20.65;;